Altona, Canada
Current Conditions -  °F | °C
As of 10:15 PM on Tuesday 21 Oct 2014 (Local Time) from K96D Reporting Station
Clear Clear  
Wind Chill: 55°   Ceiling: Unl
Heat Index: 55°   Visibility: 10mi
Dew Point: 41°   Wind: 20mph
Humidity: 58%   Direction: 170°S
Pressure: 29.78"   Gusts: 25mph
Location:  49.1°N, 97.57°W
Report Text: K96D 220315Z AUTO 17017G22KT 10SM CLR 13/05 A2978 RMK AO2
Loading
Personal Weather Stations






























Interactive Weather Map
Tropical Storm Tracking
New forecast layout! Learn more

10-Day Weather Forecast

Advertisements
Track Severe Weather on mobile